sensor_id;sensor_type;location;lat;lon;timestamp;P1;durP1;ratioP1;P2;durP2;ratioP2
17528;SDS011;8882;53.192;8.184;2023-10-09T04:15:59;7.13;;;4.40;;
17528;SDS011;8882;53.192;8.184;2023-10-09T04:18:52;9.37;;;5.33;;
17528;SDS011;8882;53.192;8.184;2023-10-09T04:21:18;9.47;;;5.17;;
17528;SDS011;8882;53.192;8.184;2023-10-09T04:23:44;7.00;;;4.90;;
17528;SDS011;8882;53.192;8.184;2023-10-09T04:26:34;7.53;;;4.70;;
17528;SDS011;8882;53.192;8.184;2023-10-09T04:29:00;9.80;;;5.37;;
17528;SDS011;8882;53.192;8.184;2023-10-09T04:31:27;7.57;;;4.87;;
17528;SDS011;8882;53.192;8.184;2023-10-09T04:33:57;10.40;;;5.23;;
17528;SDS011;8882;53.192;8.184;2023-10-09T04:36:43;10.13;;;5.03;;
17528;SDS011;8882;53.192;8.184;2023-10-09T04:39:11;10.80;;;5.47;;
17528;SDS011;8882;53.192;8.184;2023-10-09T04:41:37;11.13;;;5.57;;
17528;SDS011;8882;53.192;8.184;2023-10-09T04:44:09;12.20;;;6.47;;
17528;SDS011;8882;53.192;8.184;2023-10-09T04:46:47;9.97;;;5.90;;
17528;SDS011;8882;53.192;8.184;2023-10-09T04:49:32;11.57;;;6.57;;
17528;SDS011;8882;53.192;8.184;2023-10-09T04:52:27;15.10;;;6.90;;
17528;SDS011;8882;53.192;8.184;2023-10-09T04:54:53;12.40;;;6.40;;
17528;SDS011;8882;53.192;8.184;2023-10-09T04:57:42;11.37;;;6.70;;
17528;SDS011;8882;53.192;8.184;2023-10-09T05:02:50;14.00;;;6.50;;
17528;SDS011;8882;53.192;8.184;2023-10-09T05:05:21;12.57;;;6.47;;
17528;SDS011;8882;53.192;8.184;2023-10-09T05:08:05;12.90;;;7.23;;
17528;SDS011;8882;53.192;8.184;2023-10-09T05:10:53;15.67;;;7.20;;
17528;SDS011;8882;53.192;8.184;2023-10-09T05:13:22;13.23;;;8.40;;
17528;SDS011;8882;53.192;8.184;2023-10-09T05:16:04;15.17;;;8.67;;
17528;SDS011;8882;53.192;8.184;2023-10-09T05:18:41;14.97;;;8.20;;
17528;SDS011;8882;53.192;8.184;2023-10-09T05:21:34;16.10;;;8.00;;
17528;SDS011;8882;53.192;8.184;2023-10-09T05:24:10;17.97;;;8.63;;
17528;SDS011;8882;53.192;8.184;2023-10-09T05:26:36;23.20;;;9.67;;
17528;SDS011;8882;53.192;8.184;2023-10-09T05:29:19;23.73;;;9.97;;
17528;SDS011;8882;53.192;8.184;2023-10-09T05:32:01;21.50;;;10.40;;
17528;SDS011;8882;53.192;8.184;2023-10-09T05:34:34;18.13;;;9.23;;
17528;SDS011;8882;53.192;8.184;2023-10-09T05:37:20;23.37;;;11.90;;
17528;SDS011;8882;53.192;8.184;2023-10-09T05:39:57;25.93;;;12.10;;
17528;SDS011;8882;53.192;8.184;2023-10-09T05:42:27;28.20;;;13.20;;
17528;SDS011;8882;53.192;8.184;2023-10-09T05:45:16;28.40;;;14.40;;
17528;SDS011;8882;53.192;8.184;2023-10-09T05:47:42;28.43;;;13.20;;
17528;SDS011;8882;53.192;8.184;2023-10-09T05:50:30;28.97;;;13.93;;
17528;SDS011;8882;53.192;8.184;2023-10-09T05:52:59;31.60;;;14.00;;
17528;SDS011;8882;53.192;8.184;2023-10-09T05:55:26;29.77;;;14.40;;
17528;SDS011;8882;53.192;8.184;2023-10-09T05:58:21;35.63;;;15.80;;
17528;SDS011;8882;53.192;8.184;2023-10-09T06:01:10;38.50;;;16.87;;
17528;SDS011;8882;53.192;8.184;2023-10-09T06:04:13;38.30;;;16.53;;
17528;SDS011;8882;53.192;8.184;2023-10-09T06:06:43;39.87;;;17.47;;
17528;SDS011;8882;53.192;8.184;2023-10-09T06:09:20;37.63;;;17.20;;
17528;SDS011;8882;53.192;8.184;2023-10-09T06:11:47;41.83;;;18.17;;
17528;SDS011;8882;53.192;8.184;2023-10-09T06:14:20;40.77;;;18.27;;
17528;SDS011;8882;53.192;8.184;2023-10-09T06:16:55;38.87;;;17.50;;
17528;SDS011;8882;53.192;8.184;2023-10-09T06:19:21;46.40;;;17.73;;
17528;SDS011;8882;53.192;8.184;2023-10-09T06:21:47;35.20;;;16.57;;
17528;SDS011;8882;53.192;8.184;2023-10-09T06:24:31;33.40;;;15.67;;
17528;SDS011;8882;53.192;8.184;2023-10-09T06:27:15;38.10;;;16.93;;
17528;SDS011;8882;53.192;8.184;2023-10-09T06:30:01;34.93;;;16.47;;
17528;SDS011;8882;53.192;8.184;2023-10-09T06:32:41;33.20;;;16.83;;
17528;SDS011;8882;53.192;8.184;2023-10-09T06:35:15;37.33;;;17.80;;
17528;SDS011;8882;53.192;8.184;2023-10-09T06:37:56;35.47;;;17.03;;
17528;SDS011;8882;53.192;8.184;2023-10-09T06:40:31;31.70;;;15.90;;
17528;SDS011;8882;53.192;8.184;2023-10-09T06:43:18;31.53;;;15.63;;
17528;SDS011;8882;53.192;8.184;2023-10-09T06:45:47;30.97;;;15.10;;
17528;SDS011;8882;53.192;8.184;2023-10-09T06:48:20;29.53;;;15.27;;
17528;SDS011;8882;53.192;8.184;2023-10-09T06:51:02;33.47;;;15.70;;
17528;SDS011;8882;53.192;8.184;2023-10-09T06:53:58;29.53;;;15.50;;
17528;SDS011;8882;53.192;8.184;2023-10-09T06:56:29;42.13;;;16.67;;
17528;SDS011;8882;53.192;8.184;2023-10-09T06:59:05;35.60;;;16.27;;
17528;SDS011;8882;53.192;8.184;2023-10-09T07:01:49;33.90;;;16.20;;
17528;SDS011;8882;53.192;8.184;2023-10-09T07:04:34;35.93;;;17.23;;
17528;SDS011;8882;53.192;8.184;2023-10-09T07:06:59;34.83;;;16.90;;
17528;SDS011;8882;53.192;8.184;2023-10-09T07:09:27;34.07;;;16.30;;
17528;SDS011;8882;53.192;8.184;2023-10-09T07:12:10;36.97;;;16.47;;
17528;SDS011;8882;53.192;8.184;2023-10-09T07:14:45;32.50;;;15.80;;
17528;SDS011;8882;53.192;8.184;2023-10-09T07:17:11;27.80;;;15.97;;
17528;SDS011;8882;53.192;8.184;2023-10-09T07:19:55;31.23;;;17.37;;
17528;SDS011;8882;53.192;8.184;2023-10-09T07:22:33;33.40;;;16.13;;
17528;SDS011;8882;53.192;8.184;2023-10-09T07:25:04;39.30;;;17.13;;
17528;SDS011;8882;53.192;8.184;2023-10-09T07:27:57;37.57;;;17.07;;
17528;SDS011;8882;53.192;8.184;2023-10-09T07:30:25;37.83;;;17.10;;
17528;SDS011;8882;53.192;8.184;2023-10-09T07:32:50;38.43;;;17.57;;
17528;SDS011;8882;53.192;8.184;2023-10-09T07:35:19;34.73;;;17.93;;
17528;SDS011;8882;53.192;8.184;2023-10-09T07:38:06;36.90;;;18.27;;
17528;SDS011;8882;53.192;8.184;2023-10-09T07:40:35;41.80;;;17.97;;
17528;SDS011;8882;53.192;8.184;2023-10-09T07:43:23;42.57;;;18.57;;
17528;SDS011;8882;53.192;8.184;2023-10-09T07:46:04;39.43;;;18.10;;
17528;SDS011;8882;53.192;8.184;2023-10-09T07:48:57;39.10;;;17.30;;
17528;SDS011;8882;53.192;8.184;2023-10-09T07:51:26;41.93;;;17.90;;
17528;SDS011;8882;53.192;8.184;2023-10-09T07:53:58;43.07;;;17.80;;
17528;SDS011;8882;53.192;8.184;2023-10-09T07:56:36;41.33;;;18.07;;
17528;SDS011;8882;53.192;8.184;2023-10-09T07:59:06;49.93;;;19.73;;
17528;SDS011;8882;53.192;8.184;2023-10-09T08:01:45;42.00;;;18.13;;
17528;SDS011;8882;53.192;8.184;2023-10-09T08:04:21;44.90;;;18.47;;
17528;SDS011;8882;53.192;8.184;2023-10-09T08:07:02;45.23;;;18.13;;
17528;SDS011;8882;53.192;8.184;2023-10-09T08:09:59;44.23;;;17.87;;
17528;SDS011;8882;53.192;8.184;2023-10-09T08:12:38;47.77;;;18.60;;
17528;SDS011;8882;53.192;8.184;2023-10-09T08:15:22;41.30;;;18.30;;
17528;SDS011;8882;53.192;8.184;2023-10-09T08:17:59;41.73;;;18.50;;
17528;SDS011;8882;53.192;8.184;2023-10-09T08:20:32;38.60;;;17.23;;
17528;SDS011;8882;53.192;8.184;2023-10-09T08:23:16;39.73;;;17.83;;
17528;SDS011;8882;53.192;8.184;2023-10-09T08:25:58;50.70;;;18.10;;
17528;SDS011;8882;53.192;8.184;2023-10-09T08:28:35;40.77;;;18.43;;
17528;SDS011;8882;53.192;8.184;2023-10-09T08:31:14;39.57;;;15.90;;
17528;SDS011;8882;53.192;8.184;2023-10-09T08:33:59;46.53;;;18.27;;
17528;SDS011;8882;53.192;8.184;2023-10-09T08:36:26;43.83;;;18.33;;
17528;SDS011;8882;53.192;8.184;2023-10-09T08:38:54;37.70;;;17.43;;
17528;SDS011;8882;53.192;8.184;2023-10-09T08:41:23;44.43;;;18.80;;
17528;SDS011;8882;53.192;8.184;2023-10-09T08:43:55;36.27;;;17.13;;
17528;SDS011;8882;53.192;8.184;2023-10-09T08:48:54;40.03;;;17.07;;
17528;SDS011;8882;53.192;8.184;2023-10-09T08:51:27;42.37;;;16.90;;
17528;SDS011;8882;53.192;8.184;2023-10-09T08:53:54;38.43;;;17.30;;
17528;SDS011;8882;53.192;8.184;2023-10-09T08:56:21;34.80;;;16.60;;
17528;SDS011;8882;53.192;8.184;2023-10-09T08:58:51;36.83;;;16.07;;
17528;SDS011;8882;53.192;8.184;2023-10-09T09:01:20;40.47;;;16.63;;
17528;SDS011;8882;53.192;8.184;2023-10-09T09:03:48;37.97;;;16.23;;
17528;SDS011;8882;53.192;8.184;2023-10-09T09:06:15;32.90;;;15.40;;
17528;SDS011;8882;53.192;8.184;2023-10-09T09:08:44;31.47;;;15.03;;
17528;SDS011;8882;53.192;8.184;2023-10-09T09:11:16;37.83;;;15.63;;
17528;SDS011;8882;53.192;8.184;2023-10-09T09:16:24;31.10;;;13.50;;
17528;SDS011;8882;53.192;8.184;2023-10-09T09:18:57;34.53;;;14.27;;
17528;SDS011;8882;53.192;8.184;2023-10-09T09:21:36;31.57;;;14.40;;
17528;SDS011;8882;53.192;8.184;2023-10-09T09:24:03;30.87;;;15.23;;
17528;SDS011;8882;53.192;8.184;2023-10-09T09:26:50;34.90;;;14.87;;
17528;SDS011;8882;53.192;8.184;2023-10-09T09:32:13;29.00;;;13.00;;
17528;SDS011;8882;53.192;8.184;2023-10-09T09:34:52;30.27;;;14.17;;
17528;SDS011;8882;53.192;8.184;2023-10-09T09:37:29;32.00;;;12.97;;
17528;SDS011;8882;53.192;8.184;2023-10-09T09:40:04;27.37;;;12.83;;
17528;SDS011;8882;53.192;8.184;2023-10-09T09:43:00;30.30;;;12.93;;
17528;SDS011;8882;53.192;8.184;2023-10-09T09:45:36;28.70;;;13.13;;
17528;SDS011;8882;53.192;8.184;2023-10-09T09:48:03;25.73;;;12.50;;
17528;SDS011;8882;53.192;8.184;2023-10-09T09:50:36;23.33;;;13.07;;
17528;SDS011;8882;53.192;8.184;2023-10-09T09:53:12;27.07;;;13.20;;
17528;SDS011;8882;53.192;8.184;2023-10-09T09:55:53;32.17;;;12.17;;
17528;SDS011;8882;53.192;8.184;2023-10-09T09:58:22;27.33;;;12.67;;
17528;SDS011;8882;53.192;8.184;2023-10-09T10:00:56;25.57;;;12.47;;
17528;SDS011;8882;53.192;8.184;2023-10-09T10:03:51;24.10;;;12.77;;
17528;SDS011;8882;53.192;8.184;2023-10-09T10:06:22;25.23;;;12.37;;
17528;SDS011;8882;53.192;8.184;2023-10-09T10:08:51;21.73;;;11.17;;
17528;SDS011;8882;53.192;8.184;2023-10-09T10:14:16;27.33;;;11.20;;
17528;SDS011;8882;53.192;8.184;2023-10-09T10:17:06;19.97;;;11.20;;
17528;SDS011;8882;53.192;8.184;2023-10-09T10:22:29;23.70;;;10.83;;
17528;SDS011;8882;53.192;8.184;2023-10-09T10:24:55;20.77;;;11.27;;
17528;SDS011;8882;53.192;8.184;2023-10-09T10:27:22;25.67;;;11.50;;
17528;SDS011;8882;53.192;8.184;2023-10-09T10:35:20;24.00;;;10.73;;
17528;SDS011;8882;53.192;8.184;2023-10-09T10:37:57;23.97;;;10.13;;
17528;SDS011;8882;53.192;8.184;2023-10-09T10:40:32;24.50;;;8.97;;
17528;SDS011;8882;53.192;8.184;2023-10-09T10:43:06;20.17;;;9.10;;
17528;SDS011;8882;53.192;8.184;2023-10-09T10:46:12;20.77;;;9.77;;
17528;SDS011;8882;53.192;8.184;2023-10-09T10:49:00;21.90;;;9.57;;
17528;SDS011;8882;53.192;8.184;2023-10-09T10:51:39;22.73;;;9.03;;
17528;SDS011;8882;53.192;8.184;2023-10-09T10:54:05;21.60;;;9.37;;
17528;SDS011;8882;53.192;8.184;2023-10-09T10:56:51;22.97;;;9.27;;
17528;SDS011;8882;53.192;8.184;2023-10-09T10:59:17;22.30;;;8.93;;
17528;SDS011;8882;53.192;8.184;2023-10-09T11:01:53;14.57;;;8.07;;
17528;SDS011;8882;53.192;8.184;2023-10-09T11:04:24;17.10;;;8.50;;
17528;SDS011;8882;53.192;8.184;2023-10-09T11:07:10;15.63;;;7.70;;
17528;SDS011;8882;53.192;8.184;2023-10-09T11:09:50;16.63;;;7.13;;
17528;SDS011;8882;53.192;8.184;2023-10-09T11:12:43;13.73;;;5.97;;
17528;SDS011;8882;53.192;8.184;2023-10-09T11:15:10;13.80;;;6.80;;
17528;SDS011;8882;53.192;8.184;2023-10-09T11:20:34;16.27;;;5.53;;
17528;SDS011;8882;53.192;8.184;2023-10-09T11:23:04;10.83;;;5.03;;
17528;SDS011;8882;53.192;8.184;2023-10-09T11:25:43;9.37;;;5.00;;
17528;SDS011;8882;53.192;8.184;2023-10-09T11:28:18;7.77;;;4.37;;
17528;SDS011;8882;53.192;8.184;2023-10-09T11:31:09;7.80;;;4.80;;
17528;SDS011;8882;53.192;8.184;2023-10-09T11:33:48;11.27;;;4.37;;
17528;SDS011;8882;53.192;8.184;2023-10-09T11:36:17;10.90;;;3.87;;
17528;SDS011;8882;53.192;8.184;2023-10-09T11:38:59;4.97;;;3.80;;
17528;SDS011;8882;53.192;8.184;2023-10-09T11:41:47;8.90;;;3.97;;
17528;SDS011;8882;53.192;8.184;2023-10-09T11:44:14;7.57;;;3.33;;
17528;SDS011;8882;53.192;8.184;2023-10-09T11:46:58;8.83;;;3.57;;
17528;SDS011;8882;53.192;8.184;2023-10-09T11:52:23;4.87;;;3.13;;
17528;SDS011;8882;53.192;8.184;2023-10-09T11:55:09;4.93;;;2.93;;
17528;SDS011;8882;53.192;8.184;2023-10-09T11:57:41;6.40;;;2.90;;
17528;SDS011;8882;53.192;8.184;2023-10-09T12:00:07;6.07;;;2.60;;
17528;SDS011;8882;53.192;8.184;2023-10-09T12:02:54;10.40;;;2.93;;
17528;SDS011;8882;53.192;8.184;2023-10-09T12:05:20;6.23;;;2.97;;
17528;SDS011;8882;53.192;8.184;2023-10-09T12:07:48;8.50;;;3.67;;
17528;SDS011;8882;53.192;8.184;2023-10-09T12:10:22;7.13;;;2.60;;
17528;SDS011;8882;53.192;8.184;2023-10-09T12:12:53;7.67;;;3.00;;
17528;SDS011;8882;53.192;8.184;2023-10-09T12:15:22;6.80;;;2.97;;
17528;SDS011;8882;53.192;8.184;2023-10-09T12:17:49;7.37;;;2.93;;
17528;SDS011;8882;53.192;8.184;2023-10-09T12:20:15;8.57;;;4.03;;
17528;SDS011;8882;53.192;8.184;2023-10-09T12:23:00;8.47;;;3.10;;
17528;SDS011;8882;53.192;8.184;2023-10-09T12:25:29;6.20;;;2.93;;
17528;SDS011;8882;53.192;8.184;2023-10-09T12:27:57;7.77;;;3.40;;
17528;SDS011;8882;53.192;8.184;2023-10-09T12:30:25;8.63;;;2.80;;
17528;SDS011;8882;53.192;8.184;2023-10-09T12:32:54;11.53;;;2.83;;
17528;SDS011;8882;53.192;8.184;2023-10-09T12:35:20;9.47;;;3.00;;
17528;SDS011;8882;53.192;8.184;2023-10-09T12:37:46;7.30;;;3.37;;
17528;SDS011;8882;53.192;8.184;2023-10-09T12:40:12;9.67;;;3.57;;
17528;SDS011;8882;53.192;8.184;2023-10-09T12:42:38;6.83;;;3.03;;
17528;SDS011;8882;53.192;8.184;2023-10-09T12:45:05;7.17;;;3.30;;
17528;SDS011;8882;53.192;8.184;2023-10-09T12:47:34;8.27;;;3.23;;
17528;SDS011;8882;53.192;8.184;2023-10-09T12:50:03;10.20;;;3.50;;
17528;SDS011;8882;53.192;8.184;2023-10-09T12:52:34;9.47;;;2.77;;
17528;SDS011;8882;53.192;8.184;2023-10-09T12:55:02;8.03;;;2.67;;
17528;SDS011;8882;53.192;8.184;2023-10-09T12:57:35;9.33;;;2.70;;
17528;SDS011;8882;53.192;8.184;2023-10-09T13:00:01;9.13;;;2.70;;
17528;SDS011;8882;53.192;8.184;2023-10-09T13:02:35;12.93;;;3.10;;
17528;SDS011;8882;53.192;8.184;2023-10-09T13:05:01;9.17;;;2.90;;
17528;SDS011;8882;53.192;8.184;2023-10-09T13:07:30;5.67;;;2.40;;
17528;SDS011;8882;53.192;8.184;2023-10-09T13:09:55;8.47;;;2.93;;
17528;SDS011;8882;53.192;8.184;2023-10-09T13:12:38;12.20;;;2.50;;
17528;SDS011;8882;53.192;8.184;2023-10-09T13:15:07;6.63;;;2.50;;
17528;SDS011;8882;53.192;8.184;2023-10-09T13:17:35;9.53;;;3.00;;
17528;SDS011;8882;53.192;8.184;2023-10-09T13:20:01;9.37;;;2.60;;
17528;SDS011;8882;53.192;8.184;2023-10-09T13:22:30;6.47;;;2.30;;
17528;SDS011;8882;53.192;8.184;2023-10-09T13:24:56;8.13;;;2.63;;
17528;SDS011;8882;53.192;8.184;2023-10-09T13:27:28;12.03;;;3.10;;
17528;SDS011;8882;53.192;8.184;2023-10-09T13:29:59;6.80;;;2.57;;
17528;SDS011;8882;53.192;8.184;2023-10-09T13:32:30;4.47;;;2.10;;
17528;SDS011;8882;53.192;8.184;2023-10-09T13:35:00;5.23;;;2.30;;
17528;SDS011;8882;53.192;8.184;2023-10-09T13:37:30;11.90;;;2.77;;
17528;SDS011;8882;53.192;8.184;2023-10-09T13:40:02;7.17;;;2.70;;
17528;SDS011;8882;53.192;8.184;2023-10-09T13:42:34;7.70;;;2.50;;
17528;SDS011;8882;53.192;8.184;2023-10-09T13:45:00;11.40;;;3.23;;
17528;SDS011;8882;53.192;8.184;2023-10-09T13:47:32;10.93;;;2.53;;
17528;SDS011;8882;53.192;8.184;2023-10-09T13:49:58;5.47;;;2.63;;
17528;SDS011;8882;53.192;8.184;2023-10-09T13:52:24;8.33;;;2.63;;
17528;SDS011;8882;53.192;8.184;2023-10-09T13:54:51;10.80;;;2.97;;
17528;SDS011;8882;53.192;8.184;2023-10-09T13:57:18;6.73;;;2.53;;
17528;SDS011;8882;53.192;8.184;2023-10-09T13:59:47;9.37;;;3.00;;
17528;SDS011;8882;53.192;8.184;2023-10-09T14:02:15;6.07;;;2.50;;
17528;SDS011;8882;53.192;8.184;2023-10-09T14:04:42;8.00;;;2.80;;
17528;SDS011;8882;53.192;8.184;2023-10-09T14:07:08;10.30;;;2.77;;
17528;SDS011;8882;53.192;8.184;2023-10-09T14:09:34;9.73;;;2.73;;
17528;SDS011;8882;53.192;8.184;2023-10-09T14:12:04;6.83;;;2.50;;
17528;SDS011;8882;53.192;8.184;2023-10-09T14:17:21;7.97;;;3.00;;
17528;SDS011;8882;53.192;8.184;2023-10-09T14:19:50;8.67;;;2.50;;
17528;SDS011;8882;53.192;8.184;2023-10-09T14:22:17;6.90;;;2.40;;
17528;SDS011;8882;53.192;8.184;2023-10-09T14:24:46;5.97;;;2.37;;
17528;SDS011;8882;53.192;8.184;2023-10-09T14:27:13;6.60;;;2.50;;
17528;SDS011;8882;53.192;8.184;2023-10-09T14:29:47;7.33;;;2.00;;
17528;SDS011;8882;53.192;8.184;2023-10-09T14:32:13;5.47;;;2.60;;
17528;SDS011;8882;53.192;8.184;2023-10-09T14:34:40;2.50;;;1.90;;
17528;SDS011;8882;53.192;8.184;2023-10-09T14:37:16;8.00;;;2.30;;
17528;SDS011;8882;53.192;8.184;2023-10-09T14:39:44;4.13;;;2.00;;
17528;SDS011;8882;53.192;8.184;2023-10-09T14:42:16;7.37;;;1.97;;
17528;SDS011;8882;53.192;8.184;2023-10-09T14:44:42;6.53;;;2.20;;
17528;SDS011;8882;53.192;8.184;2023-10-09T14:47:12;9.73;;;2.47;;
17528;SDS011;8882;53.192;8.184;2023-10-09T14:49:39;7.77;;;2.63;;
17528;SDS011;8882;53.192;8.184;2023-10-09T14:52:11;3.77;;;2.03;;
17528;SDS011;8882;53.192;8.184;2023-10-09T14:54:41;5.60;;;1.70;;
17528;SDS011;8882;53.192;8.184;2023-10-09T14:57:07;9.87;;;2.13;;
17528;SDS011;8882;53.192;8.184;2023-10-09T14:59:33;5.13;;;2.03;;
17528;SDS011;8882;53.192;8.184;2023-10-09T15:01:59;6.33;;;2.20;;
17528;SDS011;8882;53.192;8.184;2023-10-09T15:04:25;6.97;;;2.00;;
17528;SDS011;8882;53.192;8.184;2023-10-09T15:06:51;5.33;;;1.80;;
17528;SDS011;8882;53.192;8.184;2023-10-09T15:09:17;3.13;;;1.73;;
17528;SDS011;8882;53.192;8.184;2023-10-09T15:11:53;11.10;;;2.37;;
17528;SDS011;8882;53.192;8.184;2023-10-09T15:14:19;6.13;;;2.20;;
17528;SDS011;8882;53.192;8.184;2023-10-09T15:16:44;5.73;;;2.17;;
17528;SDS011;8882;53.192;8.184;2023-10-09T15:19:11;4.03;;;1.70;;
17528;SDS011;8882;53.192;8.184;2023-10-09T15:21:37;4.00;;;2.10;;
17528;SDS011;8882;53.192;8.184;2023-10-09T15:24:08;4.23;;;1.93;;
17528;SDS011;8882;53.192;8.184;2023-10-09T15:26:37;7.83;;;2.30;;
17528;SDS011;8882;53.192;8.184;2023-10-09T15:29:03;6.27;;;2.00;;
17528;SDS011;8882;53.192;8.184;2023-10-09T15:31:31;10.00;;;1.83;;
17528;SDS011;8882;53.192;8.184;2023-10-09T15:33:58;9.83;;;1.80;;
17528;SDS011;8882;53.192;8.184;2023-10-09T15:36:24;6.73;;;1.87;;
17528;SDS011;8882;53.192;8.184;2023-10-09T15:38:53;3.93;;;1.67;;
17528;SDS011;8882;53.192;8.184;2023-10-09T15:41:24;2.83;;;1.47;;
17528;SDS011;8882;53.192;8.184;2023-10-09T15:43:55;5.63;;;1.80;;
17528;SDS011;8882;53.192;8.184;2023-10-09T15:46:22;4.20;;;1.50;;
17528;SDS011;8882;53.192;8.184;2023-10-09T15:48:48;3.43;;;1.60;;
17528;SDS011;8882;53.192;8.184;2023-10-09T15:51:16;5.17;;;1.40;;
17528;SDS011;8882;53.192;8.184;2023-10-09T15:53:42;7.03;;;1.60;;
17528;SDS011;8882;53.192;8.184;2023-10-09T15:56:09;3.17;;;1.50;;
17528;SDS011;8882;53.192;8.184;2023-10-09T15:58:37;6.87;;;1.30;;
17528;SDS011;8882;53.192;8.184;2023-10-09T16:01:07;3.40;;;1.30;;
17528;SDS011;8882;53.192;8.184;2023-10-09T16:03:34;4.50;;;1.30;;
17528;SDS011;8882;53.192;8.184;2023-10-09T16:05:59;2.17;;;1.13;;
17528;SDS011;8882;53.192;8.184;2023-10-09T16:08:25;5.07;;;1.40;;
17528;SDS011;8882;53.192;8.184;2023-10-09T16:10:51;5.37;;;1.43;;
17528;SDS011;8882;53.192;8.184;2023-10-09T16:13:17;5.43;;;1.27;;
17528;SDS011;8882;53.192;8.184;2023-10-09T16:15:46;7.10;;;1.37;;
17528;SDS011;8882;53.192;8.184;2023-10-09T16:18:13;2.63;;;1.00;;
17528;SDS011;8882;53.192;8.184;2023-10-09T16:20:39;3.57;;;1.73;;
17528;SDS011;8882;53.192;8.184;2023-10-09T16:23:05;3.40;;;0.90;;
17528;SDS011;8882;53.192;8.184;2023-10-09T16:25:31;3.70;;;1.17;;
17528;SDS011;8882;53.192;8.184;2023-10-09T16:27:59;2.73;;;1.03;;
17528;SDS011;8882;53.192;8.184;2023-10-09T16:30:27;5.33;;;1.30;;
17528;SDS011;8882;53.192;8.184;2023-10-09T16:32:53;3.80;;;1.40;;
17528;SDS011;8882;53.192;8.184;2023-10-09T16:35:19;2.20;;;1.10;;
17528;SDS011;8882;53.192;8.184;2023-10-09T16:37:48;1.43;;;1.23;;
17528;SDS011;8882;53.192;8.184;2023-10-09T16:40:17;5.90;;;1.50;;
17528;SDS011;8882;53.192;8.184;2023-10-09T16:42:47;7.63;;;1.17;;
17528;SDS011;8882;53.192;8.184;2023-10-09T16:45:18;5.00;;;1.33;;
17528;SDS011;8882;53.192;8.184;2023-10-09T16:47:44;2.83;;;1.20;;
17528;SDS011;8882;53.192;8.184;2023-10-09T16:50:10;6.07;;;1.40;;
17528;SDS011;8882;53.192;8.184;2023-10-09T16:52:36;2.70;;;1.17;;
17528;SDS011;8882;53.192;8.184;2023-10-09T16:55:06;8.50;;;1.50;;
17528;SDS011;8882;53.192;8.184;2023-10-09T16:57:37;3.83;;;1.30;;
17528;SDS011;8882;53.192;8.184;2023-10-09T17:00:07;2.63;;;1.20;;
17528;SDS011;8882;53.192;8.184;2023-10-09T17:02:38;2.00;;;1.20;;
17528;SDS011;8882;53.192;8.184;2023-10-09T17:05:09;3.87;;;1.23;;
17528;SDS011;8882;53.192;8.184;2023-10-09T17:07:35;1.97;;;1.00;;
17528;SDS011;8882;53.192;8.184;2023-10-09T17:10:02;5.90;;;1.43;;
17528;SDS011;8882;53.192;8.184;2023-10-09T17:12:34;6.03;;;1.30;;
17528;SDS011;8882;53.192;8.184;2023-10-09T17:15:00;3.80;;;1.20;;
17528;SDS011;8882;53.192;8.184;2023-10-09T17:17:26;6.90;;;1.33;;
17528;SDS011;8882;53.192;8.184;2023-10-09T17:19:51;1.93;;;1.10;;
17528;SDS011;8882;53.192;8.184;2023-10-09T17:22:17;2.90;;;1.10;;
17528;SDS011;8882;53.192;8.184;2023-10-09T17:24:42;4.93;;;1.57;;
17528;SDS011;8882;53.192;8.184;2023-10-09T17:27:08;2.90;;;1.30;;
17528;SDS011;8882;53.192;8.184;2023-10-09T17:29:34;6.60;;;1.27;;
17528;SDS011;8882;53.192;8.184;2023-10-09T17:32:02;8.93;;;1.90;;
17528;SDS011;8882;53.192;8.184;2023-10-09T17:34:28;3.67;;;1.73;;
17528;SDS011;8882;53.192;8.184;2023-10-09T17:36:56;4.60;;;1.40;;
17528;SDS011;8882;53.192;8.184;2023-10-09T17:39:22;2.93;;;1.27;;
17528;SDS011;8882;53.192;8.184;2023-10-09T17:41:51;6.07;;;1.37;;
17528;SDS011;8882;53.192;8.184;2023-10-09T17:44:18;3.77;;;1.20;;
17528;SDS011;8882;53.192;8.184;2023-10-09T17:46:43;3.77;;;1.37;;
17528;SDS011;8882;53.192;8.184;2023-10-09T17:49:09;5.83;;;1.70;;
17528;SDS011;8882;53.192;8.184;2023-10-09T17:51:34;4.87;;;1.37;;
17528;SDS011;8882;53.192;8.184;2023-10-09T17:54:00;6.77;;;1.20;;
17528;SDS011;8882;53.192;8.184;2023-10-09T17:56:26;3.63;;;1.13;;
17528;SDS011;8882;53.192;8.184;2023-10-09T17:58:51;4.70;;;1.23;;
17528;SDS011;8882;53.192;8.184;2023-10-09T18:01:17;2.90;;;1.10;;
17528;SDS011;8882;53.192;8.184;2023-10-09T18:03:43;3.47;;;1.10;;
17528;SDS011;8882;53.192;8.184;2023-10-09T18:06:09;4.47;;;1.30;;
17528;SDS011;8882;53.192;8.184;2023-10-09T18:08:41;5.07;;;1.20;;
17528;SDS011;8882;53.192;8.184;2023-10-09T18:11:07;5.50;;;1.53;;
17528;SDS011;8882;53.192;8.184;2023-10-09T18:13:33;2.67;;;1.07;;
17528;SDS011;8882;53.192;8.184;2023-10-09T18:16:02;6.77;;;1.30;;
17528;SDS011;8882;53.192;8.184;2023-10-09T18:18:41;5.03;;;1.17;;
17528;SDS011;8882;53.192;8.184;2023-10-09T18:21:09;3.67;;;1.30;;
17528;SDS011;8882;53.192;8.184;2023-10-09T18:23:35;1.83;;;0.90;;
17528;SDS011;8882;53.192;8.184;2023-10-09T18:26:02;4.20;;;1.50;;
17528;SDS011;8882;53.192;8.184;2023-10-09T18:28:30;3.23;;;0.90;;
17528;SDS011;8882;53.192;8.184;2023-10-09T18:30:55;4.30;;;1.20;;
17528;SDS011;8882;53.192;8.184;2023-10-09T18:33:21;1.53;;;1.10;;
17528;SDS011;8882;53.192;8.184;2023-10-09T18:35:48;5.30;;;1.77;;
17528;SDS011;8882;53.192;8.184;2023-10-09T18:38:13;5.53;;;1.37;;
17528;SDS011;8882;53.192;8.184;2023-10-09T18:40:41;7.27;;;1.43;;
17528;SDS011;8882;53.192;8.184;2023-10-09T18:43:11;7.07;;;1.67;;
17528;SDS011;8882;53.192;8.184;2023-10-09T18:45:42;5.90;;;1.40;;
17528;SDS011;8882;53.192;8.184;2023-10-09T18:48:08;7.13;;;1.57;;
17528;SDS011;8882;53.192;8.184;2023-10-09T18:50:37;4.37;;;1.50;;
17528;SDS011;8882;53.192;8.184;2023-10-09T18:53:06;4.13;;;1.33;;
17528;SDS011;8882;53.192;8.184;2023-10-09T18:55:35;3.20;;;1.07;;
17528;SDS011;8882;53.192;8.184;2023-10-09T18:58:01;5.40;;;1.30;;
17528;SDS011;8882;53.192;8.184;2023-10-09T19:00:27;4.17;;;1.00;;
17528;SDS011;8882;53.192;8.184;2023-10-09T19:02:55;1.90;;;1.10;;
17528;SDS011;8882;53.192;8.184;2023-10-09T19:05:21;6.07;;;1.70;;
17528;SDS011;8882;53.192;8.184;2023-10-09T19:07:46;3.67;;;1.60;;
17528;SDS011;8882;53.192;8.184;2023-10-09T19:10:13;5.43;;;1.60;;
17528;SDS011;8882;53.192;8.184;2023-10-09T19:12:40;3.73;;;1.70;;
17528;SDS011;8882;53.192;8.184;2023-10-09T19:15:06;3.43;;;1.30;;
17528;SDS011;8882;53.192;8.184;2023-10-09T19:17:33;3.50;;;1.10;;
17528;SDS011;8882;53.192;8.184;2023-10-09T19:20:02;1.67;;;1.07;;
17528;SDS011;8882;53.192;8.184;2023-10-09T19:22:30;5.57;;;1.47;;
17528;SDS011;8882;53.192;8.184;2023-10-09T19:24:56;5.33;;;1.40;;
17528;SDS011;8882;53.192;8.184;2023-10-09T19:27:21;5.13;;;1.47;;
17528;SDS011;8882;53.192;8.184;2023-10-09T19:29:51;3.90;;;1.33;;
17528;SDS011;8882;53.192;8.184;2023-10-09T19:32:18;5.03;;;1.87;;
17528;SDS011;8882;53.192;8.184;2023-10-09T19:34:44;2.97;;;1.40;;
17528;SDS011;8882;53.192;8.184;2023-10-09T19:37:10;7.20;;;1.40;;
17528;SDS011;8882;53.192;8.184;2023-10-09T19:39:37;6.57;;;1.43;;
17528;SDS011;8882;53.192;8.184;2023-10-09T19:42:02;3.97;;;1.50;;
17528;SDS011;8882;53.192;8.184;2023-10-09T19:44:28;4.37;;;1.23;;
17528;SDS011;8882;53.192;8.184;2023-10-09T19:46:54;6.30;;;1.20;;
17528;SDS011;8882;53.192;8.184;2023-10-09T19:49:19;5.13;;;1.33;;
17528;SDS011;8882;53.192;8.184;2023-10-09T19:51:45;2.87;;;1.07;;
17528;SDS011;8882;53.192;8.184;2023-10-09T19:54:12;4.97;;;1.30;;
17528;SDS011;8882;53.192;8.184;2023-10-09T19:56:38;3.60;;;1.40;;
17528;SDS011;8882;53.192;8.184;2023-10-09T19:59:07;6.17;;;1.40;;
17528;SDS011;8882;53.192;8.184;2023-10-09T20:01:32;4.27;;;1.20;;
17528;SDS011;8882;53.192;8.184;2023-10-09T20:03:59;2.50;;;1.40;;